ADDS METAR Data INFO
IDs: Format: Raw Decoded Include TAF

Data at: 0100 UTC 21 Oct 2017

KSJX 210057Z AUTO 21011G21KT 10SM CLR 19/11 A2999 RMK AO2 T01870110
KSJX 210036Z AUTO 21013G23KT 10SM CLR 19/11 A2998 RMK AO2 T01870110
KSJX 210016Z AUTO 22015G18KT 10SM CLR 19/11 A2999 RMK AO2 T01850111
KSJX 202356Z AUTO 22013G20KT 10SM CLR 19/12 A2999 RMK AO2 T01850115 10211 20185
KSJX 202336Z AUTO 22011G21KT 10SM CLR 19/11 A2999 RMK AO2 T01870110
KSJX 202317Z AUTO 20013G19KT 10SM CLR 19/11 A2998 RMK AO2 T01880108
KSJX 202256Z AUTO 21010G16KT 10SM CLR 19/11 A2998 RMK AO2 T01900108
KSJX 202236Z AUTO 21010G15KT 10SM CLR 19/11 A2998 RMK AO2 T01920110
KSJX 202217Z AUTO 21009G18KT 170V230 10SM CLR 19/11 A2998 RMK AO2 T01940112
KSJX 202156Z AUTO 22011G19KT 10SM CLR 20/11 A2998 RMK AO2 T02000112
KSJX 202136Z AUTO 21012G18KT 10SM CLR 20/11 A2998 RMK AO2 T02040112
KSJX 202116Z AUTO 22010G19KT 170V240 10SM CLR 21/11 A2998 RMK AO2 T02080113
KSJX 202056Z AUTO 21011G20KT 10SM CLR 21/12 A2999 RMK AO2 T02090115
KSJX 202036Z AUTO 21011G19KT 10SM CLR 21/12 A2999 RMK AO2 T02100117
KSJX 202016Z AUTO 22012G16KT 10SM CLR 21/12 A3000 RMK AO2 T02090121
KSJX 201956Z AUTO 22012G19KT 10SM CLR 21/12 A3000 RMK AO2 T02070124
KSJX 201936Z AUTO 22010G16KT 10SM CLR 21/12 A3000 RMK AO2 T02100123
KSJX 201916Z AUTO 21010G17KT 10SM CLR 21/12 A3000 RMK AO2 T02100122
KSJX 201857Z AUTO 22013G19KT 10SM CLR 21/12 A3001 RMK AO2 T02070122
KSJX 201837Z AUTO 21010G21KT 10SM CLR 21/12 A3001 RMK AO2 T02050122
KSJX 201816Z AUTO 21009G21KT 10SM CLR 20/12 A3002 RMK AO2 T01980121
KSJX 201757Z AUTO 21010G19KT 10SM CLR 20/12 A3003 RMK AO2 T02000120 10200 20139
KSJX 201736Z AUTO 22015G21KT 10SM CLR 20/12 A3003 RMK AO2 T02000118
KSJX 201716Z AUTO 21013G18KT 10SM CLR 20/12 A3004 RMK AO2 T01980116
KSJX 201656Z AUTO 20011G24KT 10SM CLR 19/12 A3005 RMK AO2 T01930116
KSJX 201636Z AUTO 22012G20KT 10SM CLR 19/11 A3005 RMK AO2 T01890112
KSJX 201616Z AUTO 21014G18KT 10SM CLR 19/11 A3005 RMK AO2 T01910111
KSJX 201556Z AUTO 20013G21KT 10SM CLR 19/11 A3006 RMK AO2 T01850108
KSJX 201537Z AUTO 21014G19KT 10SM CLR 18/11 A3006 RMK AO2 T01840108
KSJX 201516Z AUTO 21013G19KT 10SM CLR 18/10 A3006 RMK AO2 T01800104
KSJX 201456Z AUTO 21011G19KT 10SM CLR 18/10 A3006 RMK AO2 T01780101
KSJX 201437Z AUTO 21012G16KT 10SM CLR 17/10 A3006 RMK AO2 T01740100
KSJX 201416Z AUTO 21010G18KT 10SM CLR 17/09 A3007 RMK AO2 T01690094
KSJX 201357Z AUTO 20012G16KT 10SM CLR 17/09 A3007 RMK AO2 T01650087
KSJX 201336Z AUTO 20008G17KT 10SM CLR 16/08 A3007 RMK AO2 T01600080
KSJX 201316Z AUTO 21009G14KT 10SM CLR 16/08 A3008 RMK AO2 T01550081
KSJX 201256Z AUTO 20007KT 160V220 10SM CLR 15/08 A3008 RMK AO2 T01460083
KSJX 201236Z AUTO 20006KT 10SM CLR 14/09 A3008 RMK AO2 T01410085
KSJX 201217Z AUTO 19005KT 10SM CLR 14/08 A3008 RMK AO2 T01390082
KSJX 201156Z AUTO 20006KT 10SM CLR 14/08 A3008 RMK AO2 T01430081 10144 20130
KSJX 201137Z AUTO 20007KT 10SM CLR 14/08 A3008 RMK AO2 T01440083
KSJX 201116Z AUTO 20007KT 170V230 10SM CLR 14/09 A3008 RMK AO2 T01430087
KSJX 201056Z AUTO 21007KT 10SM CLR 14/09 A3008 RMK AO2 T01420089
KSJX 201037Z AUTO 21006KT 10SM CLR 14/10 A3009 RMK AO2 T01370097
KSJX 201016Z AUTO 20005KT 10SM CLR 14/10 A3008 RMK AO2 T01360098
KSJX 200956Z AUTO 19004KT 10SM CLR 13/10 A3008 RMK AO2 T01310101
KSJX 200937Z AUTO 19005KT 10SM CLR 13/10 A3008 RMK AO2 T01340101
KSJX 200916Z AUTO 20007KT 10SM CLR 14/10 A3008 RMK AO2 T01350102
KSJX 200856Z AUTO 19006KT 10SM CLR 13/10 A3008 RMK AO2 T01310101
KSJX 200837Z AUTO 20008KT 10SM CLR 14/10 A3008 RMK AO2 T01370099
KSJX 200816Z AUTO 21007KT 10SM CLR 14/10 A3008 RMK AO2 T01370101
KSJX 200756Z AUTO 21009G15KT 10SM CLR 14/11 A3008 RMK AO2 T01380105
KSJX 200737Z AUTO 21008KT 10SM CLR 14/10 A3008 RMK AO2 T01370103
KSJX 200716Z AUTO 21007KT 10SM CLR 14/10 A3008 RMK AO2 T01390100
KSJX 200657Z AUTO 22011KT 10SM CLR 14/10 A3008 RMK AO2 T01410099
KSJX 200636Z AUTO 21007G15KT 10SM CLR 14/10 A3008 RMK AO2 T01420098
KSJX 200616Z AUTO 22009KT 10SM CLR 14/10 A3008 RMK AO2 T01410097
KSJX 200557Z AUTO 21008KT 10SM CLR 14/10 A3008 RMK AO2 T01410098 10145 20136
KSJX 200536Z AUTO 21008G15KT 10SM CLR 14/10 A3008 RMK AO2 T01410095
KSJX 200516Z AUTO 21008KT 10SM CLR 14/10 A3008 RMK AO2 T01410095
KSJX 200457Z AUTO 21008KT 10SM CLR 14/10 A3008 RMK AO2 T01420095
KSJX 200436Z AUTO 21010G15KT 10SM CLR 14/10 A3008 RMK AO2 T01410099
KSJX 200416Z AUTO 21009G14KT 10SM CLR 14/10 A3008 RMK AO2 T01400095
KSJX 200357Z AUTO 21007KT 10SM CLR 14/09 A3008 RMK AO2 T01400091 401760124
KSJX 200336Z AUTO 21008KT 10SM CLR 14/09 A3007 RMK AO2 T01410091
KSJX 200316Z AUTO 21007KT 10SM CLR 14/09 A3008 RMK AO2 T01410092
KSJX 200257Z AUTO 21007KT 10SM CLR 14/10 A3007 RMK AO2 T01370095
KSJX 200236Z AUTO 21007KT 10SM CLR 14/10 A3008 RMK AO2 T01370095
KSJX 200216Z AUTO 22007KT 10SM CLR 14/10 A3007 RMK AO2 T01400098
KSJX 200156Z AUTO 22010G14KT 10SM CLR 14/10 A3007 RMK AO2 T01410095
KSJX 200136Z AUTO 21008KT 10SM CLR 14/10 A3007 RMK AO2 T01400096
KSJX 200117Z AUTO 22010G15KT 10SM CLR 14/10 A3007 RMK AO2 T01420095
KSJX 200056Z AUTO 23009KT 10SM CLR 14/09 A3007 RMK AO2 T01420087
KSJX 200036Z AUTO 23009KT 10SM CLR 14/09 A3006 RMK AO2 T01400090
KSJX 200017Z AUTO 23007KT 10SM CLR 14/09 A3006 RMK AO2 T01380089
KSJX 192356Z AUTO 22008KT 10SM CLR 14/08 A3005 RMK AO2 T01400084 10167 20139
KSJX 192336Z AUTO 23008KT 10SM CLR 14/08 A3005 RMK AO2 T01400076
KSJX 192317Z AUTO 23008KT 10SM CLR 14/07 A3006 RMK AO2 T01400073
KSJX 192256Z AUTO 23007G14KT 10SM CLR 14/07 A3005 RMK AO2 T01410068
KSJX 192236Z AUTO 23009KT 10SM CLR 15/06 A3005 RMK AO2 T01450060
KSJX 192217Z AUTO 23011G18KT 10SM CLR 15/06 A3005 RMK AO2 T01460057
KSJX 192156Z AUTO 23010G17KT 10SM CLR 15/05 A3004 RMK AO2 T01500054
KSJX 192136Z AUTO 23013G17KT 10SM CLR 15/06 A3004 RMK AO2 T01530060
KSJX 192116Z AUTO 24013G17KT 10SM CLR 16/05 A3004 RMK AO2 T01580046
KSJX 192056Z AUTO 23012G20KT 10SM CLR 16/04 A3004 RMK AO2 T01600041
KSJX 192036Z AUTO 25014G20KT 10SM CLR 16/04 A3004 RMK AO2 T01600041
KSJX 192016Z AUTO 25015G20KT 10SM CLR 16/02 A3003 RMK AO2 T01620017
KSJX 191956Z AUTO 24014G22KT 10SM CLR 16/03 A3003 RMK AO2 T01600028
KSJX 191937Z AUTO 25016KT 10SM CLR 16/01 A3003 RMK AO2 T01590014
KSJX 191916Z AUTO 26016KT 10SM CLR 16/02 A3002 RMK AO2 T01640024
KSJX 191856Z AUTO 26015G22KT 10SM CLR 16/02 A3002 RMK AO2 T01600017
KSJX 191837Z AUTO 25015G20KT 10SM CLR 15/02 A3003 RMK AO2 T01530020
KSJX 191801Z AUTO 25017G23KT 10SM CLR 15/02 A3003 RMK AO2 T01540023
KSJX 191737Z AUTO 25017G22KT 10SM CLR 15/02 A3002 RMK AO2 T01500021
KSJX 191717Z AUTO 26015G21KT 10SM CLR 15/02 A3002 RMK AO2 T01470024
KSJX 191656Z AUTO 26014G21KT 10SM CLR 14/02 A3002 RMK AO2 T01420022
KSJX 191636Z AUTO 25016G21KT 10SM CLR 14/01 A3002 RMK AO2 T01410013
KSJX 191616Z AUTO 26017G23KT 10SM CLR 14/01 A3001 RMK AO2 T01440012
KSJX 191556Z AUTO 26017G21KT 10SM CLR 15/01 A3000 RMK AO2 T01450010
KSJX 191536Z AUTO 26017G25KT 10SM CLR 15/01 A3000 RMK AO2 T01460014
KSJX 191516Z AUTO 26017G24KT 10SM CLR 15/01 A2999 RMK AO2 T01450007
KSJX 191456Z AUTO 26016G25KT 10SM CLR 15/01 A2998 RMK AO2 T01460007
KSJX 191436Z AUTO 27017G25KT 10SM CLR 14/00 A2998 RMK AO2 T01381003
KSJX 191417Z AUTO 26019G22KT 10SM CLR 14/00 A2998 RMK AO2 T01411002
KSJX 191356Z AUTO 26016G25KT 10SM CLR 14/M01 A2997 RMK AO2 T01381009
KSJX 191336Z AUTO 26019G24KT 10SM CLR 14/00 A2997 RMK AO2 T01361005
KSJX 191317Z AUTO 26015G20KT 10SM CLR 13/M01 A2996 RMK AO2 T01321013